KCOS/COS METAR and TAF weather

Enter ICAO airport designator
Station Type Date Time Source
KCOS METAR 2019/04/18 09:54 UTC NOAA

KCOS 180954Z 34009KT 10SM OVC041 05/01 A3013 RMK AO2 SLP177 T00500006


Station Type Date Time Source
KCOS Decoded METAR 2019/04/18 09:54 UTC NOAA

COLORADO SPRINGS MUNI, CO, United States (KCOS) 38-49N 104-43W 1856M
Apr 18, 2019 - 05:54 AM EDT / 2019.04.18 0954 UTC
Wind: from the NNW (340 degrees) at 10 MPH (9 KT):0
Visibility: 10 mile(s):0
Sky conditions: overcast
Temperature: 41.0 F (5.0 C)
Dew Point: 33.1 F (0.6 C)
Relative Humidity: 73%
Pressure (altimeter): 30.13 in. Hg (1020 hPa)
ob: KCOS 180954Z 34009KT 10SM OVC041 05/01 A3013 RMK AO2 SLP177 T00500006
cycle: 10

Station Type Date Time Source
KCOS TAF 2019/04/18 06:24 UTC NOAA

TAF KCOS 180521Z 1806/1906 36008KT P6SM VCSH SCT050 BKN100
FM180900 36008KT P6SM SCT100
FM181200 35015KT P6SM FEW080
FM181700 36018G28KT P6SM BKN080
FM190200 35009KT P6SM SCT200

Example: see airport list